createdAt,value
2018-06-20T00:00:38.939Z,0
2018-06-20T00:01:38.973Z,0
2018-06-20T00:02:38.963Z,0
2018-06-20T00:03:38.941Z,0
2018-06-20T00:04:38.901Z,0
2018-06-20T00:05:38.986Z,0
2018-06-20T00:06:38.941Z,0
2018-06-20T00:07:38.860Z,0
2018-06-20T00:08:39.003Z,0
2018-06-20T00:09:38.865Z,0
2018-06-20T00:10:38.911Z,0
2018-06-20T00:11:38.774Z,0
2018-06-20T00:12:38.833Z,0
2018-06-20T00:13:38.737Z,0
2018-06-20T00:14:38.735Z,0
2018-06-20T00:15:38.734Z,0
2018-06-20T00:16:38.836Z,0
2018-06-20T00:17:38.741Z,0
2018-06-20T00:18:38.801Z,0
2018-06-20T00:19:38.841Z,0
2018-06-20T00:20:38.744Z,0
2018-06-20T00:21:38.886Z,0
2018-06-20T00:22:38.886Z,0
2018-06-20T00:23:38.958Z,0
2018-06-20T00:24:38.889Z,0
2018-06-20T00:25:38.887Z,0
2018-06-20T00:26:39.059Z,0
2018-06-20T00:27:38.893Z,0
2018-06-20T00:28:38.964Z,0
2018-06-20T00:29:38.889Z,0
2018-06-20T00:30:38.971Z,0
2018-06-20T00:31:38.901Z,0
2018-06-20T00:32:38.901Z,0
2018-06-20T00:33:38.965Z,0
2018-06-20T00:34:38.965Z,0
2018-06-20T00:35:38.892Z,0
2018-06-20T00:36:38.892Z,0
2018-06-20T00:37:38.895Z,0
2018-06-20T00:38:38.970Z,0
2018-06-20T00:39:38.895Z,0
2018-06-20T00:40:38.914Z,0
2018-06-20T00:41:39.026Z,0
2018-06-20T00:42:38.942Z,0
2018-06-20T00:43:38.894Z,0
2018-06-20T00:44:39.004Z,0
2018-06-20T00:45:38.942Z,0
2018-06-20T00:46:38.910Z,0
2018-06-20T00:47:39.006Z,0
2018-06-20T00:48:38.991Z,0
2018-06-20T00:49:38.993Z,0
2018-06-20T00:50:38.909Z,0
2018-06-20T00:51:38.904Z,0
2018-06-20T00:52:38.967Z,0
2018-06-20T00:53:38.910Z,0
2018-06-20T00:54:38.901Z,0
2018-06-20T00:55:38.992Z,0
2018-06-20T00:56:38.900Z,0
2018-06-20T00:57:38.898Z,0
2018-06-20T00:58:38.974Z,0
2018-06-20T00:59:38.905Z,0
2018-06-20T01:00:38.972Z,0
2018-06-20T01:01:38.905Z,0
2018-06-20T01:02:38.909Z,0
2018-06-20T01:03:38.976Z,0
2018-06-20T01:04:38.966Z,0
2018-06-20T01:05:38.907Z,0
2018-06-20T01:06:38.978Z,0
2018-06-20T01:07:38.910Z,0
2018-06-20T01:08:38.978Z,0
2018-06-20T01:09:38.912Z,0
2018-06-20T01:10:38.979Z,0
2018-06-20T01:11:39.027Z,0
2018-06-20T01:12:38.884Z,0
2018-06-20T01:13:38.921Z,0
2018-06-20T01:14:38.982Z,0
2018-06-20T01:15:38.966Z,0
2018-06-20T01:16:38.972Z,0
2018-06-20T01:17:38.892Z,0
2018-06-20T01:18:38.859Z,0
2018-06-20T01:19:38.979Z,0
2018-06-20T01:20:38.895Z,0
2018-06-20T01:21:39.054Z,0
2018-06-20T01:22:38.915Z,0
2018-06-20T01:23:39.057Z,0
2018-06-20T01:24:38.996Z,0
2018-06-20T01:25:38.997Z,0
2018-06-20T01:26:39.056Z,0
2018-06-20T01:27:38.930Z,0
2018-06-20T01:28:38.974Z,0
2018-06-20T01:29:38.935Z,0
2018-06-20T01:30:39.009Z,0
2018-06-20T01:31:39.038Z,0
2018-06-20T01:32:38.975Z,0
2018-06-20T01:33:39.041Z,0
2018-06-20T01:34:39.042Z,0
2018-06-20T01:35:39.003Z,0
2018-06-20T01:36:39.044Z,0
2018-06-20T01:37:39.008Z,0
2018-06-20T01:38:39.040Z,0
2018-06-20T01:39:39.003Z,0
2018-06-20T01:40:39.044Z,0
2018-06-20T01:41:39.066Z,0
2018-06-20T01:42:39.010Z,0
2018-06-20T01:43:38.972Z,0
2018-06-20T01:44:39.043Z,0
2018-06-20T01:45:38.993Z,0
2018-06-20T01:46:39.030Z,0
2018-06-20T01:47:39.033Z,0
2018-06-20T01:48:38.952Z,0
2018-06-20T01:49:38.987Z,0
2018-06-20T01:50:38.987Z,0
2018-06-20T01:51:38.986Z,0
2018-06-20T01:52:38.978Z,0
2018-06-20T01:53:38.941Z,0
2018-06-20T01:54:39.053Z,0
2018-06-20T01:55:39.067Z,0
2018-06-20T01:56:39.022Z,0
2018-06-20T01:57:39.028Z,0
2018-06-20T01:58:38.922Z,0
2018-06-20T01:59:38.991Z,0
2018-06-20T02:00:38.998Z,0
2018-06-20T02:01:39.031Z,0
2018-06-20T02:02:38.959Z,0
2018-06-20T02:03:38.983Z,0
2018-06-20T02:04:38.993Z,0
2018-06-20T02:05:39.046Z,0
2018-06-20T02:06:39.055Z,0
2018-06-20T02:07:39.051Z,0
2018-06-20T02:08:39.056Z,4
2018-06-20T02:09:39.025Z,4
2018-06-20T02:10:38.942Z,4
2018-06-20T02:11:39.062Z,4
2018-06-20T02:12:39.007Z,0
2018-06-20T02:13:39.006Z,0
2018-06-20T02:14:38.994Z,4
2018-06-20T02:15:39.069Z,4
2018-06-20T02:16:38.992Z,4
2018-06-20T02:17:38.992Z,8
2018-06-20T02:18:39.048Z,4
2018-06-20T02:19:39.004Z,4
2018-06-20T02:20:39.012Z,8
2018-06-20T02:21:39.031Z,8
2018-06-20T02:22:39.071Z,8
2018-06-20T02:23:39.060Z,8
2018-06-20T02:24:39.056Z,12
2018-06-20T02:25:39.064Z,16
2018-06-20T02:26:38.961Z,16
2018-06-20T02:27:38.973Z,16
2018-06-20T02:28:38.966Z,20
2018-06-20T02:29:39.058Z,20
2018-06-20T02:30:39.022Z,28
2018-06-20T02:31:39.036Z,28
2018-06-20T02:32:39.038Z,32
2018-06-20T02:33:39.040Z,36
2018-06-20T02:34:39.041Z,44
2018-06-20T02:35:39.040Z,48
2018-06-20T02:36:39.020Z,56
2018-06-20T02:37:38.971Z,64
2018-06-20T02:38:39.076Z,68
2018-06-20T02:39:39.131Z,80
2018-06-20T02:40:39.015Z,88
2018-06-20T02:41:38.943Z,96
2018-06-20T02:42:39.055Z,108
2018-06-20T02:43:39.050Z,120
2018-06-20T02:44:39.023Z,128
2018-06-20T02:45:39.008Z,140
2018-06-20T02:46:39.051Z,152
2018-06-20T02:47:39.058Z,168
2018-06-20T02:48:39.057Z,184
2018-06-20T02:49:39.054Z,204
2018-06-20T02:50:38.984Z,224
2018-06-20T02:51:39.034Z,244
2018-06-20T02:52:38.979Z,260
2018-06-20T02:53:39.036Z,280
2018-06-20T02:54:39.164Z,296
2018-06-20T02:55:39.055Z,324
2018-06-20T02:56:39.115Z,352
2018-06-20T02:57:38.997Z,384
2018-06-20T02:58:39.023Z,424
2018-06-20T02:59:39.061Z,460
2018-06-20T03:00:39.099Z,504
2018-06-20T03:01:38.957Z,544
2018-06-20T03:02:38.957Z,584
2018-06-20T03:03:38.973Z,620
2018-06-20T03:04:39.058Z,664
2018-06-20T03:05:38.917Z,716
2018-06-20T03:06:39.045Z,776
2018-06-20T03:07:39.060Z,840
2018-06-20T03:08:39.042Z,904
2018-06-20T03:09:39.060Z,980
2018-06-20T03:10:38.967Z,1056
2018-06-20T03:11:39.049Z,1136
2018-06-20T03:12:38.988Z,1224
2018-06-20T03:13:39.104Z,1308
2018-06-20T03:14:39.007Z,1396
2018-06-20T03:15:39.089Z,1488
2018-06-20T03:16:39.008Z,1580
2018-06-20T03:17:39.071Z,1676
2018-06-20T03:18:39.035Z,1772
2018-06-20T03:19:39.101Z,1868
2018-06-20T03:20:39.071Z,1964
2018-06-20T03:21:39.068Z,2060
2018-06-20T03:22:39.032Z,2152
2018-06-20T03:23:39.064Z,2256
2018-06-20T03:24:38.980Z,2360
2018-06-20T03:25:38.954Z,2460
2018-06-20T03:26:39.086Z,2560
2018-06-20T03:27:38.948Z,2668
2018-06-20T03:28:39.071Z,2784
2018-06-20T03:29:38.955Z,2888
2018-06-20T03:30:38.955Z,2996
2018-06-20T03:31:39.070Z,3100
2018-06-20T03:32:39.099Z,3208
2018-06-20T03:33:39.058Z,3320
2018-06-20T03:34:39.112Z,3440
2018-06-20T03:35:39.055Z,3552
2018-06-20T03:36:39.043Z,3676
2018-06-20T03:37:39.041Z,3812
2018-06-20T03:38:39.103Z,3944
2018-06-20T03:39:39.080Z,4076
2018-06-20T03:40:39.113Z,4204
2018-06-20T03:41:39.111Z,4332
2018-06-20T03:42:39.062Z,4468
2018-06-20T03:43:39.064Z,4616
2018-06-20T03:44:39.075Z,4744
2018-06-20T03:45:38.960Z,4868
2018-06-20T03:46:38.961Z,5020
2018-06-20T03:47:39.047Z,5152
2018-06-20T03:48:38.995Z,5296
2018-06-20T03:49:38.957Z,5452
2018-06-20T03:50:39.044Z,5624
2018-06-20T03:51:39.021Z,5796
2018-06-20T03:52:39.091Z,5948
2018-06-20T03:53:39.097Z,6136
2018-06-20T03:54:39.028Z,6300
2018-06-20T03:55:39.028Z,6472
2018-06-20T03:56:39.128Z,6636
2018-06-20T03:57:39.095Z,6808
2018-06-20T03:58:39.031Z,7008
2018-06-20T03:59:39.099Z,7204
2018-06-20T04:00:39.100Z,7420
2018-06-20T04:01:39.034Z,7624
2018-06-20T04:02:38.997Z,7832
2018-06-20T04:03:39.058Z,8068
2018-06-20T04:04:39.099Z,8292
2018-06-20T04:05:39.041Z,8524
2018-06-20T04:06:39.010Z,8756
2018-06-20T04:07:39.106Z,8976
2018-06-20T04:08:39.145Z,9180
2018-06-20T04:09:39.109Z,9360
2018-06-20T04:10:39.121Z,9536
2018-06-20T04:11:39.104Z,9724
2018-06-20T04:12:39.052Z,9928
2018-06-20T04:13:39.045Z,10152
2018-06-20T04:14:39.047Z,10340
2018-06-20T04:15:39.042Z,10532
2018-06-20T04:16:39.040Z,10712
2018-06-20T04:17:39.107Z,10924
2018-06-20T04:18:39.114Z,11172
2018-06-20T04:19:39.112Z,11480
2018-06-20T04:20:39.174Z,11800
2018-06-20T04:21:39.113Z,12120
2018-06-20T04:22:39.073Z,12440
2018-06-20T04:23:39.112Z,12788
2018-06-20T04:24:39.031Z,13152
2018-06-20T04:25:39.111Z,13540
2018-06-20T04:26:39.020Z,13996
2018-06-20T04:27:39.091Z,14564
2018-06-20T04:28:39.024Z,15236
2018-06-20T04:29:39.119Z,15944
2018-06-20T04:30:39.082Z,16564
2018-06-20T04:31:39.040Z,17284
2018-06-20T04:32:39.095Z,17888
2018-06-20T04:33:39.115Z,18520
2018-06-20T04:34:39.114Z,18936
2018-06-20T04:35:39.040Z,19108
2018-06-20T04:36:39.046Z,18932
2018-06-20T04:37:39.084Z,18384
2018-06-20T04:38:39.156Z,17756
2018-06-20T04:39:39.045Z,17324
2018-06-20T04:40:39.100Z,16948
2018-06-20T04:41:39.095Z,16592
2018-06-20T04:42:39.059Z,16268
2018-06-20T04:43:39.123Z,16100
2018-06-20T04:44:39.155Z,16144
2018-06-20T04:45:39.127Z,16332
2018-06-20T04:46:39.129Z,16624
2018-06-20T04:47:39.058Z,16964
2018-06-20T04:48:39.128Z,17304
2018-06-20T04:49:39.064Z,17564
2018-06-20T04:50:39.064Z,17640
2018-06-20T04:51:39.068Z,17652
2018-06-20T04:52:39.154Z,17676
2018-06-20T04:53:39.130Z,17752
2018-06-20T04:54:39.130Z,17892
2018-06-20T04:55:39.087Z,18112
2018-06-20T04:56:39.071Z,18452
2018-06-20T04:57:39.038Z,18804
2018-06-20T04:58:39.164Z,19148
2018-06-20T04:59:39.163Z,19392
2018-06-20T05:00:39.177Z,19636
2018-06-20T05:01:39.131Z,19768
2018-06-20T05:02:39.053Z,19932
2018-06-20T05:03:39.095Z,20232
2018-06-20T05:04:39.000Z,20696
2018-06-20T05:05:39.095Z,21072
2018-06-20T05:06:38.996Z,21480
2018-06-20T05:07:39.036Z,22112
2018-06-20T05:08:39.091Z,22528
2018-06-20T05:09:39.002Z,22944
2018-06-20T05:10:39.090Z,23360
2018-06-20T05:11:39.093Z,23776
2018-06-20T05:12:39.048Z,24064
2018-06-20T05:13:39.121Z,24320
2018-06-20T05:14:39.184Z,24512
2018-06-20T05:15:39.173Z,24832
2018-06-20T05:16:39.089Z,25184
2018-06-20T05:17:39.121Z,25568
2018-06-20T05:18:39.203Z,25888
2018-06-20T05:19:39.108Z,26176
2018-06-20T05:20:39.149Z,26432
2018-06-20T05:21:39.076Z,26624
2018-06-20T05:22:39.305Z,26752
2018-06-20T05:23:39.129Z,26816
2018-06-20T05:24:39.181Z,26976
2018-06-20T05:25:39.191Z,27104
2018-06-20T05:26:39.078Z,27328
2018-06-20T05:27:39.154Z,27616
2018-06-20T05:28:39.124Z,27936
2018-06-20T05:29:39.124Z,28192
2018-06-20T05:30:39.189Z,28448
2018-06-20T05:31:39.078Z,28640
2018-06-20T05:32:39.096Z,28768
2018-06-20T05:33:39.165Z,28992
2018-06-20T05:34:39.095Z,29184
2018-06-20T05:35:39.161Z,29344
2018-06-20T05:36:39.117Z,29472
2018-06-20T05:37:39.167Z,29632
2018-06-20T05:38:39.120Z,29824
2018-06-20T05:39:39.102Z,30112
2018-06-20T05:40:39.174Z,30336
2018-06-20T05:41:39.105Z,30560
2018-06-20T05:42:39.086Z,30720
2018-06-20T05:43:39.165Z,32128
2018-06-20T05:44:39.087Z,38048
2018-06-20T05:45:39.112Z,42272
2018-06-20T05:46:39.075Z,42656
2018-06-20T05:47:39.193Z,43136
2018-06-20T05:48:39.208Z,43552
2018-06-20T05:49:39.193Z,44320
2018-06-20T05:50:39.170Z,44800
2018-06-20T05:51:39.091Z,45472
2018-06-20T05:52:39.147Z,46112
2018-06-20T05:53:39.152Z,46144
2018-06-20T05:54:39.118Z,46112
2018-06-20T05:55:39.148Z,46272
2018-06-20T05:56:39.193Z,46752
2018-06-20T05:57:39.216Z,47616
2018-06-20T05:58:39.157Z,48288
2018-06-20T05:59:39.171Z,48832
2018-06-20T06:00:39.218Z,48864
2018-06-20T06:01:39.136Z,48704
2018-06-20T06:02:39.184Z,48864
2018-06-20T06:03:39.187Z,49376
2018-06-20T06:04:39.212Z,49632
2018-06-20T06:05:39.142Z,49728
2018-06-20T06:06:39.228Z,49856
2018-06-20T06:07:39.184Z,49952
2018-06-20T06:08:39.090Z,51104
2018-06-20T06:09:39.145Z,52160
2018-06-20T06:10:39.163Z,54048
2018-06-20T06:11:39.152Z,54976
2018-06-20T06:12:39.104Z,56320
2018-06-20T06:13:39.144Z,57184
2018-06-20T06:14:39.110Z,57504
2018-06-20T06:15:39.062Z,57920
2018-06-20T06:16:39.174Z,57728
2018-06-20T06:17:39.124Z,58016
2018-06-20T06:18:39.093Z,59776
2018-06-20T06:19:39.108Z,61472
2018-06-20T06:20:39.148Z,63232
2018-06-20T06:21:39.175Z,65536
2018-06-20T06:22:39.110Z,66464
2018-06-20T06:23:39.179Z,67840
2018-06-20T06:24:39.141Z,67872
2018-06-20T06:25:39.100Z,67904
2018-06-20T06:26:39.247Z,67200
2018-06-20T06:27:39.116Z,66240
2018-06-20T06:28:39.148Z,66688
2018-06-20T06:29:39.185Z,67776
2018-06-20T06:30:39.160Z,68960
2018-06-20T06:31:39.226Z,69792
2018-06-20T06:32:39.122Z,71104
2018-06-20T06:33:39.198Z,71424
2018-06-20T06:34:39.105Z,71744
2018-06-20T06:35:39.074Z,71072
2018-06-20T06:36:39.105Z,72480
2018-06-20T06:37:39.185Z,73504
2018-06-20T06:38:39.144Z,75008
2018-06-20T06:39:39.109Z,76416
2018-06-20T06:40:39.126Z,77376
2018-06-20T06:41:39.218Z,77568
2018-06-20T06:42:39.205Z,77984
2018-06-20T06:43:39.169Z,78048
2018-06-20T06:44:39.237Z,77728
2018-06-20T06:45:39.205Z,78176
2018-06-20T06:46:39.184Z,80096
2018-06-20T06:47:39.210Z,82464
2018-06-20T06:48:39.173Z,84352
2018-06-20T06:49:39.284Z,84640
2018-06-20T06:50:39.132Z,83936
2018-06-20T06:51:39.114Z,80608
2018-06-20T06:52:39.131Z,78112
2018-06-20T06:53:39.158Z,76672
2018-06-20T06:54:39.208Z,76224
2018-06-20T06:55:39.205Z,77120
2018-06-20T06:56:39.126Z,79616
2018-06-20T06:57:39.147Z,81792
2018-06-20T06:58:39.097Z,85120
2018-06-20T06:59:39.172Z,85952
2018-06-20T07:00:39.207Z,85856
2018-06-20T07:01:39.092Z,85728
2018-06-20T07:02:39.124Z,84256
2018-06-20T07:03:39.138Z,84704
2018-06-20T07:04:39.208Z,85536
2018-06-20T07:05:39.215Z,88640
2018-06-20T07:06:39.127Z,94720
2018-06-20T07:07:39.218Z,99808
2018-06-20T07:08:39.221Z,104032
2018-06-20T07:09:39.214Z,104288
2018-06-20T07:10:39.212Z,84448
2018-06-20T07:11:39.166Z,91616
2018-06-20T07:14:39.163Z,88416
2018-06-20T07:15:39.151Z,66944
2018-06-20T07:16:39.243Z,61888
2018-06-20T07:17:39.181Z,52896
2018-06-20T07:18:39.257Z,50240
2018-06-20T07:19:39.259Z,46016
2018-06-20T07:20:39.150Z,46944
2018-06-20T07:21:39.169Z,48064
2018-06-20T07:22:39.262Z,47744
2018-06-20T07:23:39.192Z,44832
2018-06-20T07:24:39.375Z,53376
2018-06-20T07:25:39.142Z,75552
2018-06-20T07:26:39.260Z,106176
2018-06-20T07:27:39.276Z,111872
2018-06-20T07:28:39.201Z,51872
2018-06-20T07:29:39.257Z,41280
2018-06-20T07:30:39.284Z,39168
2018-06-20T07:31:39.155Z,36192
2018-06-20T07:32:39.285Z,33088
2018-06-20T07:33:39.277Z,30592
2018-06-20T07:34:39.142Z,28576
2018-06-20T07:35:39.424Z,27200
2018-06-20T07:36:39.266Z,25984
2018-06-20T07:37:39.208Z,25120
2018-06-20T07:38:39.264Z,24864
2018-06-20T07:39:39.218Z,25120
2018-06-20T07:40:39.185Z,25792
2018-06-20T07:41:39.164Z,27616
2018-06-20T07:42:39.274Z,29536
2018-06-20T07:43:39.171Z,33280
2018-06-20T07:44:39.184Z,32096
2018-06-20T07:45:39.226Z,34272
2018-06-20T07:46:39.251Z,38656
2018-06-20T07:47:39.147Z,44224
2018-06-20T07:48:39.152Z,59424
2018-06-20T07:49:39.221Z,57984
2018-06-20T07:50:39.291Z,55264
2018-06-20T07:51:39.209Z,54368
2018-06-20T07:52:39.186Z,53440
2018-06-20T07:53:39.188Z,53056
2018-06-20T07:54:39.183Z,53344
2018-06-20T07:55:39.255Z,54112
2018-06-20T07:56:39.254Z,54944
2018-06-20T07:57:39.324Z,55200
2018-06-20T07:58:39.287Z,59616
2018-06-20T07:59:39.192Z,57408
2018-06-20T08:00:39.391Z,58112
2018-06-20T08:01:39.261Z,59872
2018-06-20T08:02:39.191Z,61952
2018-06-20T08:03:39.291Z,65376
2018-06-20T08:04:39.191Z,66528
2018-06-20T08:05:39.259Z,65952
2018-06-20T08:06:39.196Z,63936
2018-06-20T08:07:39.259Z,61888
2018-06-20T08:08:39.280Z,67136
2018-06-20T08:09:39.198Z,58592
2018-06-20T08:10:39.197Z,53504
2018-06-20T08:11:39.265Z,50528
2018-06-20T08:12:39.191Z,48384
2018-06-20T08:13:39.292Z,46208
2018-06-20T08:14:39.304Z,44544
2018-06-20T08:15:39.269Z,44416
2018-06-20T08:16:39.265Z,45696
2018-06-20T08:17:39.295Z,48032
2018-06-20T08:18:39.265Z,51264
2018-06-20T08:19:39.206Z,55360
2018-06-20T08:20:39.193Z,59968
2018-06-20T08:21:39.237Z,64864
2018-06-20T08:22:39.342Z,65792
2018-06-20T08:23:39.287Z,66432
2018-06-20T08:24:39.216Z,66688
2018-06-20T08:25:39.272Z,78240
2018-06-20T08:26:39.271Z,53056
2018-06-20T08:27:39.275Z,48064
2018-06-20T08:28:39.251Z,44864
2018-06-20T08:29:39.318Z,43264
2018-06-20T08:30:39.275Z,42272
2018-06-20T08:31:39.197Z,41280
2018-06-20T08:32:39.280Z,39616
2018-06-20T08:33:39.208Z,37184
2018-06-20T08:34:39.209Z,34592
2018-06-20T08:35:39.278Z,32352
2018-06-20T08:36:39.209Z,30880
2018-06-20T08:37:39.212Z,30144
2018-06-20T08:38:39.214Z,29280
2018-06-20T08:39:39.216Z,28320
2018-06-20T08:40:39.283Z,27552
2018-06-20T08:41:39.288Z,27520
2018-06-20T08:42:39.275Z,28224
2018-06-20T08:43:39.239Z,30144
2018-06-20T08:44:39.203Z,33216
2018-06-20T08:45:39.189Z,36224
2018-06-20T08:46:39.158Z,39072
2018-06-20T08:47:39.239Z,41760
2018-06-20T08:48:39.278Z,43872
2018-06-20T08:49:39.195Z,45504
2018-06-20T08:50:39.257Z,46688
2018-06-20T08:51:39.249Z,47008
2018-06-20T08:52:39.262Z,46240
2018-06-20T08:53:39.255Z,44832
2018-06-20T08:54:39.320Z,43552
2018-06-20T08:55:39.276Z,42304
2018-06-20T08:56:39.365Z,40800
2018-06-20T08:57:39.248Z,38976
2018-06-20T08:58:39.213Z,36960
2018-06-20T08:59:39.272Z,34464
2018-06-20T09:00:39.296Z,32448
2018-06-20T09:01:39.271Z,30816
2018-06-20T09:02:39.304Z,28832
2018-06-20T09:03:39.294Z,27008
2018-06-20T09:04:39.232Z,25440
2018-06-20T09:05:39.298Z,24160
2018-06-20T09:06:39.303Z,22912
2018-06-20T09:07:39.306Z,22368
2018-06-20T09:08:39.283Z,21824
2018-06-20T09:09:39.298Z,21152
2018-06-20T09:10:39.272Z,20896
2018-06-20T09:11:39.237Z,21152
2018-06-20T09:12:39.236Z,21472
2018-06-20T09:13:39.338Z,21408
2018-06-20T09:14:39.204Z,20736
2018-06-20T09:15:39.266Z,19864
2018-06-20T09:16:39.318Z,19716
2018-06-20T09:17:39.263Z,20084
2018-06-20T09:18:39.280Z,20704
2018-06-20T09:19:39.307Z,20364
2018-06-20T09:20:39.210Z,20348
2018-06-20T09:21:39.308Z,21184
2018-06-20T09:22:39.354Z,22368
2018-06-20T09:23:39.240Z,23776
2018-06-20T09:24:39.200Z,25120
2018-06-20T09:25:39.246Z,25984
2018-06-20T09:26:39.261Z,26368
2018-06-20T09:27:39.239Z,26816
2018-06-20T09:28:39.175Z,27904
2018-06-20T09:29:39.248Z,29728
2018-06-20T09:30:39.274Z,31392
2018-06-20T09:31:39.248Z,32672
2018-06-20T09:32:39.297Z,33376
2018-06-20T09:33:39.202Z,34176
2018-06-20T09:34:39.245Z,35520
2018-06-20T09:35:39.191Z,37376
2018-06-20T09:36:39.196Z,39200
2018-06-20T09:37:39.223Z,39968
2018-06-20T09:38:39.268Z,40160
2018-06-20T09:39:39.164Z,39840
2018-06-20T09:40:39.140Z,38656
2018-06-20T09:41:39.185Z,36960
2018-06-20T09:42:39.179Z,35136
2018-06-20T09:43:39.357Z,33600
2018-06-20T09:44:39.302Z,32544
2018-06-20T09:45:39.287Z,32544
2018-06-20T09:46:39.304Z,34336
2018-06-20T09:47:39.345Z,38240
2018-06-20T09:48:39.282Z,43936
2018-06-20T09:49:39.328Z,50784
2018-06-20T09:50:39.298Z,58304
2018-06-20T09:51:39.293Z,64960
2018-06-20T09:52:39.290Z,72928
2018-06-20T09:53:39.333Z,101984
2018-06-20T09:54:39.283Z,83392
2018-06-20T09:56:39.267Z,95072
2018-06-20T09:57:39.295Z,84224
2018-06-20T09:58:39.337Z,64800
2018-06-20T09:59:39.301Z,58528
2018-06-20T10:00:39.407Z,55136
2018-06-20T10:01:39.339Z,55008
2018-06-20T10:02:39.267Z,54944
2018-06-20T10:03:39.358Z,55296
2018-06-20T10:04:39.246Z,55712
2018-06-20T10:05:39.303Z,57344
2018-06-20T10:06:39.398Z,60960
2018-06-20T10:07:39.366Z,61088
2018-06-20T10:08:39.295Z,56928
2018-06-20T10:09:39.244Z,54432
2018-06-20T10:10:39.317Z,52448
2018-06-20T10:11:39.298Z,51104
2018-06-20T10:12:39.364Z,51168
2018-06-20T10:13:39.381Z,59168
2018-06-20T10:14:39.376Z,51648
2018-06-20T10:15:39.306Z,51616
2018-06-20T10:16:39.379Z,52416
2018-06-20T10:17:39.246Z,52832
2018-06-20T10:18:39.306Z,53088
2018-06-20T10:19:39.249Z,54016
2018-06-20T10:20:39.260Z,56608
2018-06-20T10:21:39.285Z,61568
2018-06-20T10:22:39.247Z,69536
2018-06-20T10:23:39.377Z,81792
2018-06-20T10:24:39.352Z,122304
2018-06-20T10:25:39.330Z,111808
2018-06-20T10:26:39.330Z,114848
2018-06-20T10:27:39.330Z,135840
2018-06-20T10:28:39.598Z,91392
2018-06-20T10:29:39.378Z,85472
2018-06-20T10:30:39.380Z,152480
2018-06-20T10:31:39.333Z,79776
2018-06-20T10:32:39.357Z,69856
2018-06-20T10:33:39.312Z,74048
2018-06-20T10:34:39.381Z,106912
2018-06-20T10:35:39.385Z,84928
2018-06-20T10:36:39.256Z,205664
2018-06-20T10:37:39.394Z,209664
2018-06-20T10:38:39.316Z,103104
2018-06-20T10:39:39.339Z,94912
2018-06-20T10:40:39.391Z,83072
2018-06-20T10:41:39.361Z,81632
2018-06-20T10:42:39.302Z,77600
2018-06-20T10:43:39.297Z,75648
2018-06-20T10:44:39.300Z,75968
2018-06-20T10:45:39.298Z,77216
2018-06-20T10:46:39.301Z,78848
2018-06-20T10:47:39.376Z,82368
2018-06-20T10:48:39.297Z,93856
2018-06-20T10:49:39.378Z,95616
2018-06-20T10:50:39.299Z,99872
2018-06-20T10:51:39.391Z,108832
2018-06-20T10:52:39.372Z,104928
2018-06-20T10:53:39.243Z,209664
2018-06-20T10:54:39.369Z,106176
2018-06-20T10:55:39.241Z,161984
2018-06-20T10:56:39.276Z,117696
2018-06-20T10:57:39.307Z,124640
2018-06-20T10:58:39.368Z,101536
2018-06-20T10:59:39.241Z,99392
2018-06-20T11:00:39.253Z,114400
2018-06-20T11:01:39.285Z,129760
2018-06-20T11:02:39.329Z,106560
2018-06-20T11:03:39.341Z,104672
2018-06-20T11:04:39.379Z,106912
2018-06-20T11:05:39.340Z,90560
2018-06-20T11:06:39.283Z,87104
2018-06-20T11:07:39.347Z,96256
2018-06-20T11:08:39.378Z,117184
2018-06-20T11:09:39.447Z,97536
2018-06-20T11:10:39.414Z,123136
2018-06-20T11:11:39.438Z,82880
2018-06-20T11:12:39.378Z,73408
2018-06-20T11:13:39.385Z,149184
2018-06-20T11:14:39.383Z,197760
2018-06-20T11:15:39.415Z,176960
2018-06-20T11:16:39.386Z,125888
2018-06-20T11:17:39.323Z,78272
2018-06-20T11:18:39.387Z,63584
2018-06-20T11:19:39.327Z,62528
2018-06-20T11:20:39.319Z,63488
2018-06-20T11:21:39.364Z,64000
2018-06-20T11:22:39.386Z,65952
2018-06-20T11:23:39.324Z,68608
2018-06-20T11:24:39.391Z,65312
2018-06-20T11:25:39.326Z,65952
2018-06-20T11:26:39.389Z,67648
2018-06-20T11:27:39.332Z,71776
2018-06-20T11:28:39.331Z,85472
2018-06-20T11:29:39.390Z,185920
2018-06-20T11:30:39.391Z,158592
2018-06-20T11:31:39.332Z,200704
2018-06-20T11:32:39.403Z,70976
2018-06-20T11:33:39.402Z,147904
2018-06-20T11:34:39.299Z,145280
2018-06-20T11:35:39.365Z,196832
2018-06-20T11:36:39.426Z,160672
2018-06-20T11:37:39.431Z,117344
2018-06-20T11:38:39.324Z,190176
2018-06-20T11:39:39.309Z,182496
2018-06-20T11:40:39.322Z,173312
2018-06-20T11:41:39.398Z,172896
2018-06-20T11:42:39.383Z,169216
2018-06-20T11:43:39.307Z,172896
2018-06-20T11:44:39.302Z,179264
2018-06-20T11:45:39.398Z,177504
2018-06-20T11:46:39.342Z,181152
2018-06-20T11:47:39.310Z,184256
2018-06-20T11:48:39.299Z,188128
2018-06-20T11:49:39.387Z,191904
2018-06-20T11:50:39.438Z,194208
2018-06-20T11:51:39.319Z,85184
2018-06-20T11:52:39.441Z,121184
2018-06-20T11:53:39.344Z,80928
2018-06-20T11:54:39.409Z,79488
2018-06-20T11:55:39.410Z,199584
2018-06-20T11:56:39.346Z,97856
2018-06-20T11:57:39.369Z,75648
2018-06-20T11:58:39.413Z,185184
2018-06-20T11:59:39.313Z,171520
2018-06-20T12:00:39.414Z,167200
2018-06-20T12:01:39.414Z,169152
2018-06-20T12:02:39.347Z,172512
2018-06-20T12:03:39.389Z,174496
2018-06-20T12:04:39.389Z,68256
2018-06-20T12:05:39.393Z,119488
2018-06-20T12:06:39.384Z,103680
2018-06-20T12:07:39.442Z,80704
2018-06-20T12:08:39.475Z,169248
2018-06-20T12:09:39.323Z,187552
2018-06-20T12:10:39.401Z,184192
2018-06-20T12:11:39.454Z,180576
2018-06-20T12:12:39.491Z,181312
2018-06-20T12:13:39.517Z,176576
2018-06-20T12:14:39.403Z,175072
2018-06-20T12:15:39.386Z,124768
2018-06-20T12:16:39.461Z,170048
2018-06-20T12:17:39.349Z,174688
2018-06-20T12:18:39.402Z,173472
2018-06-20T12:19:39.328Z,175840
2018-06-20T12:20:39.403Z,170016
2018-06-20T12:21:39.401Z,167968
2018-06-20T12:22:39.348Z,167360
2018-06-20T12:23:39.428Z,165856
2018-06-20T12:24:39.412Z,163808
2018-06-20T12:25:39.405Z,160064
2018-06-20T12:26:39.403Z,158368
2018-06-20T12:27:39.407Z,158080
2018-06-20T12:28:39.410Z,152224
2018-06-20T12:29:39.401Z,153664
2018-06-20T12:30:39.342Z,151808
2018-06-20T12:31:39.392Z,147328
2018-06-20T12:32:39.410Z,148192
2018-06-20T12:33:39.342Z,135936
2018-06-20T12:34:39.358Z,150272
2018-06-20T12:35:39.424Z,150848
2018-06-20T12:36:39.387Z,149536
2018-06-20T12:37:39.378Z,146944
2018-06-20T12:38:39.434Z,141536
2018-06-20T12:39:39.349Z,137984
2018-06-20T12:40:39.434Z,136576
2018-06-20T12:41:39.430Z,138336
2018-06-20T12:42:39.453Z,141440
2018-06-20T12:43:39.423Z,143264
2018-06-20T12:44:39.472Z,145504
2018-06-20T12:45:39.480Z,145024
2018-06-20T12:46:39.400Z,139168
2018-06-20T12:47:39.419Z,139104
2018-06-20T12:48:39.349Z,135232
2018-06-20T12:49:39.471Z,140800
2018-06-20T12:50:39.421Z,146912
2018-06-20T12:51:39.447Z,148000
2018-06-20T12:52:39.539Z,149344
2018-06-20T12:53:39.423Z,148512
2018-06-20T12:54:39.356Z,79552
2018-06-20T12:55:39.490Z,40608
2018-06-20T12:56:39.482Z,146272
2018-06-20T12:57:39.451Z,144608
2018-06-20T12:58:39.422Z,145056
2018-06-20T12:59:39.494Z,144480
2018-06-20T13:00:39.431Z,143904
2018-06-20T13:01:39.450Z,139872
2018-06-20T13:02:39.426Z,136640
2018-06-20T13:03:39.528Z,140928
2018-06-20T13:04:39.430Z,92256
2018-06-20T13:05:39.418Z,106016
2018-06-20T13:06:39.362Z,145376
2018-06-20T13:07:39.418Z,148512
2018-06-20T13:08:39.435Z,150688
2018-06-20T13:09:39.455Z,150816
2018-06-20T13:10:39.442Z,153696
2018-06-20T13:11:39.430Z,136960
2018-06-20T13:12:39.416Z,136128
2018-06-20T13:13:39.397Z,141728
2018-06-20T13:14:39.466Z,139552
2018-06-20T13:15:39.397Z,136064